sensor_id;sensor_type;location;lat;lon;timestamp;P1;durP1;ratioP1;P2;durP2;ratioP2
6928;SDS011;3504;52.616;13.238;2023-04-24T00:01:05;6.50;;;5.90;;
6928;SDS011;3504;52.616;13.238;2023-04-24T00:06:07;6.17;;;5.53;;
6928;SDS011;3504;52.616;13.238;2023-04-24T00:11:08;6.73;;;6.00;;
6928;SDS011;3504;52.616;13.238;2023-04-24T00:16:09;5.73;;;5.13;;
6928;SDS011;3504;52.616;13.238;2023-04-24T00:21:10;6.27;;;5.67;;
6928;SDS011;3504;52.616;13.238;2023-04-24T00:26:11;7.17;;;6.43;;
6928;SDS011;3504;52.616;13.238;2023-04-24T00:31:11;7.03;;;6.33;;
6928;SDS011;3504;52.616;13.238;2023-04-24T00:36:12;7.30;;;6.23;;
6928;SDS011;3504;52.616;13.238;2023-04-24T00:41:12;6.37;;;5.77;;
6928;SDS011;3504;52.616;13.238;2023-04-24T00:46:13;7.47;;;6.10;;
6928;SDS011;3504;52.616;13.238;2023-04-24T00:51:14;8.50;;;7.00;;
6928;SDS011;3504;52.616;13.238;2023-04-24T00:56:15;8.97;;;7.23;;
6928;SDS011;3504;52.616;13.238;2023-04-24T01:01:16;8.00;;;6.77;;
6928;SDS011;3504;52.616;13.238;2023-04-24T01:06:26;7.63;;;6.83;;
6928;SDS011;3504;52.616;13.238;2023-04-24T01:11:31;7.70;;;6.57;;
6928;SDS011;3504;52.616;13.238;2023-04-24T01:16:31;8.53;;;7.63;;
6928;SDS011;3504;52.616;13.238;2023-04-24T01:21:33;8.73;;;6.80;;
6928;SDS011;3504;52.616;13.238;2023-04-24T01:26:37;9.77;;;7.40;;
6928;SDS011;3504;52.616;13.238;2023-04-24T01:31:38;7.77;;;6.87;;
6928;SDS011;3504;52.616;13.238;2023-04-24T01:36:40;8.30;;;7.40;;
6928;SDS011;3504;52.616;13.238;2023-04-24T01:41:43;9.27;;;7.50;;
6928;SDS011;3504;52.616;13.238;2023-04-24T01:46:43;10.47;;;8.20;;
6928;SDS011;3504;52.616;13.238;2023-04-24T01:51:44;8.77;;;7.83;;
6928;SDS011;3504;52.616;13.238;2023-04-24T01:56:45;10.53;;;8.20;;
6928;SDS011;3504;52.616;13.238;2023-04-24T02:01:46;9.57;;;8.67;;
6928;SDS011;3504;52.616;13.238;2023-04-24T02:06:46;9.30;;;8.27;;
6928;SDS011;3504;52.616;13.238;2023-04-24T02:11:47;9.90;;;8.43;;
6928;SDS011;3504;52.616;13.238;2023-04-24T02:16:47;10.33;;;7.80;;
6928;SDS011;3504;52.616;13.238;2023-04-24T02:21:48;9.00;;;8.10;;
6928;SDS011;3504;52.616;13.238;2023-04-24T02:26:48;9.40;;;8.50;;
6928;SDS011;3504;52.616;13.238;2023-04-24T02:31:49;8.83;;;7.93;;
6928;SDS011;3504;52.616;13.238;2023-04-24T02:36:49;8.77;;;7.90;;
6928;SDS011;3504;52.616;13.238;2023-04-24T02:41:50;9.23;;;7.50;;
6928;SDS011;3504;52.616;13.238;2023-04-24T02:46:50;10.20;;;8.17;;
6928;SDS011;3504;52.616;13.238;2023-04-24T02:51:51;8.13;;;7.33;;
6928;SDS011;3504;52.616;13.238;2023-04-24T02:56:52;10.30;;;8.00;;
6928;SDS011;3504;52.616;13.238;2023-04-24T03:01:52;9.43;;;8.43;;
6928;SDS011;3504;52.616;13.238;2023-04-24T03:06:53;10.80;;;8.20;;
6928;SDS011;3504;52.616;13.238;2023-04-24T03:11:54;9.10;;;8.10;;
6928;SDS011;3504;52.616;13.238;2023-04-24T03:16:55;17.00;;;15.23;;
6928;SDS011;3504;52.616;13.238;2023-04-24T03:21:56;23.20;;;16.83;;
6928;SDS011;3504;52.616;13.238;2023-04-24T03:26:58;10.80;;;9.70;;
6928;SDS011;3504;52.616;13.238;2023-04-24T03:32:22;10.00;;;8.70;;
6928;SDS011;3504;52.616;13.238;2023-04-24T03:37:23;9.57;;;8.57;;
6928;SDS011;3504;52.616;13.238;2023-04-24T03:42:34;10.33;;;9.20;;
6928;SDS011;3504;52.616;13.238;2023-04-24T03:47:35;9.50;;;8.60;;
6928;SDS011;3504;52.616;13.238;2023-04-24T03:52:38;9.20;;;8.30;;
6928;SDS011;3504;52.616;13.238;2023-04-24T03:57:40;9.07;;;8.17;;
6928;SDS011;3504;52.616;13.238;2023-04-24T04:02:49;10.23;;;7.80;;
6928;SDS011;3504;52.616;13.238;2023-04-24T04:07:50;10.60;;;9.50;;
6928;SDS011;3504;52.616;13.238;2023-04-24T04:12:51;15.00;;;11.67;;
6928;SDS011;3504;52.616;13.238;2023-04-24T04:17:51;10.83;;;9.13;;
6928;SDS011;3504;52.616;13.238;2023-04-24T04:22:52;11.20;;;9.47;;
6928;SDS011;3504;52.616;13.238;2023-04-24T04:28:00;10.77;;;8.30;;
6928;SDS011;3504;52.616;13.238;2023-04-24T04:33:02;11.07;;;8.50;;
6928;SDS011;3504;52.616;13.238;2023-04-24T04:38:04;10.80;;;8.43;;
6928;SDS011;3504;52.616;13.238;2023-04-24T04:43:16;8.43;;;7.53;;
6928;SDS011;3504;52.616;13.238;2023-04-24T04:48:23;8.40;;;7.50;;
6928;SDS011;3504;52.616;13.238;2023-04-24T04:53:25;7.20;;;6.50;;
6928;SDS011;3504;52.616;13.238;2023-04-24T04:58:26;7.80;;;6.97;;
6928;SDS011;3504;52.616;13.238;2023-04-24T05:03:30;7.97;;;6.67;;
6928;SDS011;3504;52.616;13.238;2023-04-24T05:08:37;7.33;;;6.50;;
6928;SDS011;3504;52.616;13.238;2023-04-24T05:13:40;7.27;;;6.57;;
6928;SDS011;3504;52.616;13.238;2023-04-24T05:18:46;8.13;;;6.60;;
6928;SDS011;3504;52.616;13.238;2023-04-24T05:23:50;6.90;;;6.20;;
6928;SDS011;3504;52.616;13.238;2023-04-24T05:28:59;8.27;;;5.90;;
6928;SDS011;3504;52.616;13.238;2023-04-24T05:34:00;6.07;;;5.47;;
6928;SDS011;3504;52.616;13.238;2023-04-24T05:39:01;10.40;;;6.10;;
6928;SDS011;3504;52.616;13.238;2023-04-24T05:44:02;5.97;;;4.67;;
6928;SDS011;3504;52.616;13.238;2023-04-24T05:49:02;6.53;;;4.87;;
6928;SDS011;3504;52.616;13.238;2023-04-24T05:54:05;6.13;;;5.13;;
6928;SDS011;3504;52.616;13.238;2023-04-24T05:59:05;6.10;;;4.30;;
6928;SDS011;3504;52.616;13.238;2023-04-24T06:04:06;5.37;;;3.50;;
6928;SDS011;3504;52.616;13.238;2023-04-24T06:09:07;3.97;;;3.33;;
6928;SDS011;3504;52.616;13.238;2023-04-24T06:14:08;5.67;;;3.77;;
6928;SDS011;3504;52.616;13.238;2023-04-24T06:19:11;4.53;;;3.33;;
6928;SDS011;3504;52.616;13.238;2023-04-24T06:24:13;2.70;;;2.40;;
6928;SDS011;3504;52.616;13.238;2023-04-24T06:29:14;3.73;;;2.67;;
6928;SDS011;3504;52.616;13.238;2023-04-24T06:34:15;1.90;;;1.80;;
6928;SDS011;3504;52.616;13.238;2023-04-24T06:39:15;2.60;;;1.80;;
6928;SDS011;3504;52.616;13.238;2023-04-24T06:44:16;2.53;;;1.90;;
6928;SDS011;3504;52.616;13.238;2023-04-24T06:49:17;3.27;;;1.70;;
6928;SDS011;3504;52.616;13.238;2023-04-24T06:54:17;1.63;;;1.43;;
6928;SDS011;3504;52.616;13.238;2023-04-24T06:59:18;3.30;;;1.53;;
6928;SDS011;3504;52.616;13.238;2023-04-24T07:04:19;2.20;;;1.17;;
6928;SDS011;3504;52.616;13.238;2023-04-24T07:09:19;2.30;;;1.20;;
6928;SDS011;3504;52.616;13.238;2023-04-24T07:14:20;1.20;;;1.10;;
6928;SDS011;3504;52.616;13.238;2023-04-24T07:19:21;1.73;;;1.33;;
6928;SDS011;3504;52.616;13.238;2023-04-24T07:24:24;1.10;;;1.10;;
6928;SDS011;3504;52.616;13.238;2023-04-24T07:29:26;1.50;;;1.33;;
6928;SDS011;3504;52.616;13.238;2023-04-24T07:34:26;1.63;;;0.97;;
6928;SDS011;3504;52.616;13.238;2023-04-24T07:39:27;1.87;;;1.00;;
6928;SDS011;3504;52.616;13.238;2023-04-24T07:44:29;1.80;;;0.90;;
6928;SDS011;3504;52.616;13.238;2023-04-24T07:49:29;0.80;;;0.80;;
6928;SDS011;3504;52.616;13.238;2023-04-24T07:54:30;3.20;;;1.40;;
6928;SDS011;3504;52.616;13.238;2023-04-24T07:59:30;4.67;;;1.70;;
6928;SDS011;3504;52.616;13.238;2023-04-24T08:04:31;2.50;;;1.10;;
6928;SDS011;3504;52.616;13.238;2023-04-24T08:09:32;1.83;;;0.93;;
6928;SDS011;3504;52.616;13.238;2023-04-24T08:14:32;1.00;;;1.00;;
6928;SDS011;3504;52.616;13.238;2023-04-24T08:19:33;1.20;;;1.10;;
6928;SDS011;3504;52.616;13.238;2023-04-24T08:24:33;2.20;;;1.20;;
6928;SDS011;3504;52.616;13.238;2023-04-24T08:29:34;1.60;;;1.10;;
6928;SDS011;3504;52.616;13.238;2023-04-24T08:34:34;0.82;;;0.80;;
6928;SDS011;3504;52.616;13.238;2023-04-24T08:39:35;1.90;;;1.00;;
6928;SDS011;3504;52.616;13.238;2023-04-24T08:44:36;2.42;;;1.38;;
6928;SDS011;3504;52.616;13.238;2023-04-24T08:49:37;0.90;;;0.90;;
6928;SDS011;3504;52.616;13.238;2023-04-24T08:54:38;1.80;;;0.85;;
6928;SDS011;3504;52.616;13.238;2023-04-24T08:59:41;0.93;;;0.93;;
6928;SDS011;3504;52.616;13.238;2023-04-24T09:04:43;3.28;;;1.10;;
6928;SDS011;3504;52.616;13.238;2023-04-24T09:09:45;1.35;;;1.05;;
6928;SDS011;3504;52.616;13.238;2023-04-24T09:14:47;2.40;;;1.00;;
6928;SDS011;3504;52.616;13.238;2023-04-24T09:19:49;1.27;;;0.90;;
6928;SDS011;3504;52.616;13.238;2023-04-24T09:24:59;3.67;;;1.00;;
6928;SDS011;3504;52.616;13.238;2023-04-24T09:30:03;1.35;;;0.95;;
6928;SDS011;3504;52.616;13.238;2023-04-24T09:35:05;1.25;;;1.02;;
6928;SDS011;3504;52.616;13.238;2023-04-24T09:40:11;1.50;;;0.90;;
6928;SDS011;3504;52.616;13.238;2023-04-24T09:45:22;1.27;;;1.17;;
6928;SDS011;3504;52.616;13.238;2023-04-24T09:50:29;1.17;;;1.03;;
6928;SDS011;3504;52.616;13.238;2023-04-24T09:55:32;1.10;;;1.00;;
6928;SDS011;3504;52.616;13.238;2023-04-24T10:00:33;1.70;;;1.30;;
6928;SDS011;3504;52.616;13.238;2023-04-24T10:05:35;1.35;;;1.10;;
6928;SDS011;3504;52.616;13.238;2023-04-24T10:10:42;1.00;;;1.00;;
6928;SDS011;3504;52.616;13.238;2023-04-24T10:15:45;1.53;;;1.10;;
6928;SDS011;3504;52.616;13.238;2023-04-24T10:20:47;1.10;;;1.00;;
6928;SDS011;3504;52.616;13.238;2023-04-24T10:25:48;1.97;;;1.40;;
6928;SDS011;3504;52.616;13.238;2023-04-24T10:30:50;1.23;;;0.93;;
6928;SDS011;3504;52.616;13.238;2023-04-24T10:35:55;2.00;;;1.00;;
6928;SDS011;3504;52.616;13.238;2023-04-24T10:41:06;1.77;;;1.13;;
6928;SDS011;3504;52.616;13.238;2023-04-24T10:46:16;1.00;;;0.90;;
6928;SDS011;3504;52.616;13.238;2023-04-24T10:51:21;2.50;;;1.13;;
6928;SDS011;3504;52.616;13.238;2023-04-24T10:56:23;1.20;;;1.10;;
6928;SDS011;3504;52.616;13.238;2023-04-24T11:01:27;2.17;;;0.93;;
6928;SDS011;3504;52.616;13.238;2023-04-24T11:06:33;1.70;;;1.15;;
6928;SDS011;3504;52.616;13.238;2023-04-24T11:11:36;2.00;;;1.17;;
6928;SDS011;3504;52.616;13.238;2023-04-24T11:16:52;4.53;;;1.02;;
6928;SDS011;3504;52.616;13.238;2023-04-24T11:42:40;1.65;;;0.80;;
6928;SDS011;3504;52.616;13.238;2023-04-24T11:47:49;1.48;;;0.73;;
6928;SDS011;3504;52.616;13.238;2023-04-24T11:52:50;1.15;;;0.90;;
6928;SDS011;3504;52.616;13.238;2023-04-24T11:57:52;2.05;;;1.63;;
6928;SDS011;3504;52.616;13.238;2023-04-24T12:03:09;3.15;;;2.22;;
6928;SDS011;3504;52.616;13.238;2023-04-24T12:08:11;3.25;;;1.52;;
6928;SDS011;3504;52.616;13.238;2023-04-24T12:13:11;3.30;;;2.17;;
6928;SDS011;3504;52.616;13.238;2023-04-24T12:18:13;2.85;;;1.50;;
6928;SDS011;3504;52.616;13.238;2023-04-24T12:23:16;3.13;;;0.90;;
6928;SDS011;3504;52.616;13.238;2023-04-24T12:28:36;0.90;;;0.80;;
6928;SDS011;3504;52.616;13.238;2023-04-24T12:33:38;1.05;;;0.90;;
6928;SDS011;3504;52.616;13.238;2023-04-24T12:38:39;0.95;;;0.85;;
6928;SDS011;3504;52.616;13.238;2023-04-24T12:44:10;1.88;;;0.90;;
6928;SDS011;3504;52.616;13.238;2023-04-24T12:49:10;1.35;;;0.98;;
6928;SDS011;3504;52.616;13.238;2023-04-24T12:54:11;2.88;;;1.40;;
6928;SDS011;3504;52.616;13.238;2023-04-24T12:59:11;1.35;;;1.08;;
6928;SDS011;3504;52.616;13.238;2023-04-24T13:04:12;2.00;;;1.30;;
6928;SDS011;3504;52.616;13.238;2023-04-24T13:09:13;1.50;;;1.08;;
6928;SDS011;3504;52.616;13.238;2023-04-24T13:14:13;2.72;;;1.50;;
6928;SDS011;3504;52.616;13.238;2023-04-24T13:19:14;1.50;;;1.00;;
6928;SDS011;3504;52.616;13.238;2023-04-24T13:24:15;1.95;;;1.25;;
6928;SDS011;3504;52.616;13.238;2023-04-24T13:29:15;2.22;;;1.08;;
6928;SDS011;3504;52.616;13.238;2023-04-24T13:34:16;3.17;;;1.30;;
6928;SDS011;3504;52.616;13.238;2023-04-24T13:39:17;2.55;;;1.20;;
6928;SDS011;3504;52.616;13.238;2023-04-24T13:44:18;2.20;;;1.25;;
6928;SDS011;3504;52.616;13.238;2023-04-24T13:49:20;1.40;;;1.30;;
6928;SDS011;3504;52.616;13.238;2023-04-24T13:54:21;5.32;;;1.50;;
6928;SDS011;3504;52.616;13.238;2023-04-24T13:59:23;1.50;;;1.40;;
6928;SDS011;3504;52.616;13.238;2023-04-24T14:04:24;2.60;;;1.15;;
6928;SDS011;3504;52.616;13.238;2023-04-24T14:09:24;1.10;;;1.00;;
6928;SDS011;3504;52.616;13.238;2023-04-24T14:14:25;2.65;;;1.13;;
6928;SDS011;3504;52.616;13.238;2023-04-24T14:19:25;1.90;;;1.17;;
6928;SDS011;3504;52.616;13.238;2023-04-24T14:24:26;1.30;;;1.05;;
6928;SDS011;3504;52.616;13.238;2023-04-24T14:29:29;1.33;;;1.20;;
6928;SDS011;3504;52.616;13.238;2023-04-24T14:34:30;3.53;;;1.30;;
6928;SDS011;3504;52.616;13.238;2023-04-24T14:39:30;1.35;;;1.17;;
6928;SDS011;3504;52.616;13.238;2023-04-24T14:44:30;1.52;;;1.42;;
6928;SDS011;3504;52.616;13.238;2023-04-24T14:49:32;1.88;;;1.30;;
6928;SDS011;3504;52.616;13.238;2023-04-24T14:54:32;2.00;;;1.50;;
6928;SDS011;3504;52.616;13.238;2023-04-24T14:59:33;3.17;;;1.38;;
6928;SDS011;3504;52.616;13.238;2023-04-24T15:04:34;2.15;;;1.45;;
6928;SDS011;3504;52.616;13.238;2023-04-24T15:09:35;1.55;;;1.45;;
6928;SDS011;3504;52.616;13.238;2023-04-24T15:14:35;1.40;;;1.30;;
6928;SDS011;3504;52.616;13.238;2023-04-24T15:19:36;2.53;;;1.60;;
6928;SDS011;3504;52.616;13.238;2023-04-24T15:24:36;3.25;;;1.40;;
6928;SDS011;3504;52.616;13.238;2023-04-24T15:29:37;1.48;;;1.38;;
6928;SDS011;3504;52.616;13.238;2023-04-24T15:34:38;2.55;;;1.55;;
6928;SDS011;3504;52.616;13.238;2023-04-24T15:39:38;1.87;;;1.37;;
6928;SDS011;3504;52.616;13.238;2023-04-24T15:44:39;1.60;;;1.33;;
6928;SDS011;3504;52.616;13.238;2023-04-24T15:49:39;1.40;;;1.30;;
6928;SDS011;3504;52.616;13.238;2023-04-24T15:54:40;1.30;;;1.20;;
6928;SDS011;3504;52.616;13.238;2023-04-24T15:59:40;2.55;;;1.20;;
6928;SDS011;3504;52.616;13.238;2023-04-24T16:04:41;1.52;;;1.42;;
6928;SDS011;3504;52.616;13.238;2023-04-24T16:09:42;4.03;;;1.30;;
6928;SDS011;3504;52.616;13.238;2023-04-24T16:14:43;1.00;;;1.00;;
6928;SDS011;3504;52.616;13.238;2023-04-24T16:19:43;1.67;;;1.00;;
6928;SDS011;3504;52.616;13.238;2023-04-24T16:24:44;1.27;;;1.10;;
6928;SDS011;3504;52.616;13.238;2023-04-24T16:29:46;2.47;;;1.50;;
6928;SDS011;3504;52.616;13.238;2023-04-24T16:34:47;2.30;;;1.60;;
6928;SDS011;3504;52.616;13.238;2023-04-24T16:39:47;3.13;;;1.60;;
6928;SDS011;3504;52.616;13.238;2023-04-24T16:44:48;1.77;;;1.53;;
6928;SDS011;3504;52.616;13.238;2023-04-24T16:49:49;1.50;;;1.37;;
6928;SDS011;3504;52.616;13.238;2023-04-24T16:54:50;2.50;;;2.00;;
6928;SDS011;3504;52.616;13.238;2023-04-24T16:59:50;1.97;;;1.80;;
6928;SDS011;3504;52.616;13.238;2023-04-24T17:04:51;5.07;;;2.00;;
6928;SDS011;3504;52.616;13.238;2023-04-24T17:09:51;3.90;;;1.80;;
6928;SDS011;3504;52.616;13.238;2023-04-24T17:14:52;3.00;;;2.33;;
6928;SDS011;3504;52.616;13.238;2023-04-24T17:19:52;3.40;;;2.10;;
6928;SDS011;3504;52.616;13.238;2023-04-24T17:24:53;2.93;;;1.90;;
6928;SDS011;3504;52.616;13.238;2023-04-24T17:29:54;2.53;;;1.80;;
6928;SDS011;3504;52.616;13.238;2023-04-24T17:34:54;3.50;;;2.10;;
6928;SDS011;3504;52.616;13.238;2023-04-24T17:39:55;1.63;;;1.53;;
6928;SDS011;3504;52.616;13.238;2023-04-24T17:44:55;3.33;;;1.80;;
6928;SDS011;3504;52.616;13.238;2023-04-24T17:49:56;2.67;;;1.90;;
6928;SDS011;3504;52.616;13.238;2023-04-24T17:54:56;3.67;;;1.93;;
6928;SDS011;3504;52.616;13.238;2023-04-24T17:59:57;2.73;;;1.70;;
6928;SDS011;3504;52.616;13.238;2023-04-24T18:04:57;2.67;;;1.57;;
6928;SDS011;3504;52.616;13.238;2023-04-24T18:09:58;1.80;;;1.10;;
6928;SDS011;3504;52.616;13.238;2023-04-24T18:14:58;3.03;;;1.40;;
6928;SDS011;3504;52.616;13.238;2023-04-24T18:19:59;2.50;;;0.90;;
6928;SDS011;3504;52.616;13.238;2023-04-24T18:24:59;0.90;;;0.70;;
6928;SDS011;3504;52.616;13.238;2023-04-24T18:30:00;0.80;;;0.80;;
6928;SDS011;3504;52.616;13.238;2023-04-24T18:35:02;1.33;;;0.73;;
6928;SDS011;3504;52.616;13.238;2023-04-24T18:40:03;1.47;;;1.00;;
6928;SDS011;3504;52.616;13.238;2023-04-24T18:45:04;1.17;;;0.87;;
6928;SDS011;3504;52.616;13.238;2023-04-24T18:50:05;1.70;;;1.00;;
6928;SDS011;3504;52.616;13.238;2023-04-24T18:55:06;2.50;;;1.20;;
6928;SDS011;3504;52.616;13.238;2023-04-24T19:00:08;1.23;;;0.97;;
6928;SDS011;3504;52.616;13.238;2023-04-24T19:05:09;1.40;;;1.10;;
6928;SDS011;3504;52.616;13.238;2023-04-24T19:10:11;1.93;;;1.00;;
6928;SDS011;3504;52.616;13.238;2023-04-24T19:15:12;1.13;;;1.00;;
6928;SDS011;3504;52.616;13.238;2023-04-24T19:20:12;1.20;;;1.10;;
6928;SDS011;3504;52.616;13.238;2023-04-24T19:25:13;1.73;;;1.10;;
6928;SDS011;3504;52.616;13.238;2023-04-24T19:30:13;1.23;;;1.13;;
6928;SDS011;3504;52.616;13.238;2023-04-24T19:35:14;1.37;;;1.20;;
6928;SDS011;3504;52.616;13.238;2023-04-24T19:40:15;2.40;;;1.17;;
6928;SDS011;3504;52.616;13.238;2023-04-24T19:45:15;1.67;;;1.20;;
6928;SDS011;3504;52.616;13.238;2023-04-24T19:50:16;1.93;;;1.50;;
6928;SDS011;3504;52.616;13.238;2023-04-24T19:55:16;1.53;;;1.43;;
6928;SDS011;3504;52.616;13.238;2023-04-24T20:00:17;2.33;;;1.63;;
6928;SDS011;3504;52.616;13.238;2023-04-24T20:05:17;1.63;;;1.50;;
6928;SDS011;3504;52.616;13.238;2023-04-24T20:10:18;2.60;;;1.60;;
6928;SDS011;3504;52.616;13.238;2023-04-24T20:15:18;1.73;;;1.53;;
6928;SDS011;3504;52.616;13.238;2023-04-24T20:20:19;1.57;;;1.47;;
6928;SDS011;3504;52.616;13.238;2023-04-24T20:25:20;2.57;;;1.63;;
6928;SDS011;3504;52.616;13.238;2023-04-24T20:30:21;2.57;;;1.90;;
6928;SDS011;3504;52.616;13.238;2023-04-24T20:35:21;2.80;;;1.97;;
6928;SDS011;3504;52.616;13.238;2023-04-24T20:40:27;4.77;;;2.47;;
6928;SDS011;3504;52.616;13.238;2023-04-24T20:45:28;4.50;;;2.40;;
6928;SDS011;3504;52.616;13.238;2023-04-24T20:50:29;6.37;;;2.60;;
6928;SDS011;3504;52.616;13.238;2023-04-24T20:55:31;2.50;;;2.30;;
6928;SDS011;3504;52.616;13.238;2023-04-24T21:00:32;3.77;;;2.70;;
6928;SDS011;3504;52.616;13.238;2023-04-24T21:05:32;3.47;;;2.27;;
6928;SDS011;3504;52.616;13.238;2023-04-24T21:10:33;4.20;;;2.70;;
6928;SDS011;3504;52.616;13.238;2023-04-24T21:15:33;4.90;;;3.00;;
6928;SDS011;3504;52.616;13.238;2023-04-24T21:20:34;4.70;;;3.30;;
6928;SDS011;3504;52.616;13.238;2023-04-24T21:25:35;5.63;;;3.20;;
6928;SDS011;3504;52.616;13.238;2023-04-24T21:30:36;4.80;;;2.93;;
6928;SDS011;3504;52.616;13.238;2023-04-24T21:35:37;6.93;;;3.90;;
6928;SDS011;3504;52.616;13.238;2023-04-24T21:40:37;5.87;;;3.83;;
6928;SDS011;3504;52.616;13.238;2023-04-24T21:45:38;6.13;;;3.60;;
6928;SDS011;3504;52.616;13.238;2023-04-24T21:50:38;10.90;;;6.83;;
6928;SDS011;3504;52.616;13.238;2023-04-24T21:55:39;7.67;;;6.33;;
6928;SDS011;3504;52.616;13.238;2023-04-24T22:00:40;7.87;;;4.33;;
6928;SDS011;3504;52.616;13.238;2023-04-24T22:05:41;5.87;;;4.93;;
6928;SDS011;3504;52.616;13.238;2023-04-24T22:10:41;6.90;;;4.87;;
6928;SDS011;3504;52.616;13.238;2023-04-24T22:15:41;7.50;;;4.53;;
6928;SDS011;3504;52.616;13.238;2023-04-24T22:20:42;6.00;;;4.77;;
6928;SDS011;3504;52.616;13.238;2023-04-24T22:25:43;5.33;;;4.10;;
6928;SDS011;3504;52.616;13.238;2023-04-24T22:30:44;6.57;;;4.43;;
6928;SDS011;3504;52.616;13.238;2023-04-24T22:35:44;7.87;;;4.50;;
6928;SDS011;3504;52.616;13.238;2023-04-24T22:40:45;6.77;;;4.80;;
6928;SDS011;3504;52.616;13.238;2023-04-24T22:45:45;5.73;;;4.20;;
6928;SDS011;3504;52.616;13.238;2023-04-24T22:50:46;6.90;;;4.43;;
6928;SDS011;3504;52.616;13.238;2023-04-24T22:55:46;9.37;;;4.33;;
6928;SDS011;3504;52.616;13.238;2023-04-24T23:00:47;6.90;;;4.30;;
6928;SDS011;3504;52.616;13.238;2023-04-24T23:05:47;6.73;;;4.43;;
6928;SDS011;3504;52.616;13.238;2023-04-24T23:10:48;8.73;;;5.00;;
6928;SDS011;3504;52.616;13.238;2023-04-24T23:15:48;7.93;;;4.63;;
6928;SDS011;3504;52.616;13.238;2023-04-24T23:20:49;6.90;;;5.10;;
6928;SDS011;3504;52.616;13.238;2023-04-24T23:25:50;5.67;;;4.50;;
6928;SDS011;3504;52.616;13.238;2023-04-24T23:30:50;5.23;;;4.30;;
6928;SDS011;3504;52.616;13.238;2023-04-24T23:35:51;4.40;;;3.60;;
6928;SDS011;3504;52.616;13.238;2023-04-24T23:40:52;4.50;;;3.83;;
6928;SDS011;3504;52.616;13.238;2023-04-24T23:45:52;8.13;;;3.73;;
6928;SDS011;3504;52.616;13.238;2023-04-24T23:50:53;5.57;;;3.70;;
6928;SDS011;3504;52.616;13.238;2023-04-24T23:55:53;5.73;;;3.00;;
